sensor_id;sensor_type;location;lat;lon;timestamp;pressure;altitude;pressure_sealevel;temperature;humidity
57990;BME280;58373;51.824;5.564;2023-06-14T00:00:57;101366.84;;;19.36;39.12
57990;BME280;58373;51.824;5.564;2023-06-14T00:03:22;101374.91;;;19.34;38.91
57990;BME280;58373;51.824;5.564;2023-06-14T00:05:49;101369.97;;;19.31;39.26
57990;BME280;58373;51.824;5.564;2023-06-14T00:08:15;101376.41;;;19.29;39.44
57990;BME280;58373;51.824;5.564;2023-06-14T00:10:40;101376.75;;;19.26;39.47
57990;BME280;58373;51.824;5.564;2023-06-14T00:13:09;101382.34;;;19.23;39.61
57990;BME280;58373;51.824;5.564;2023-06-14T00:15:34;101374.63;;;19.21;39.50
57990;BME280;58373;51.824;5.564;2023-06-14T00:18:00;101376.59;;;19.19;39.66
57990;BME280;58373;51.824;5.564;2023-06-14T00:20:29;101374.47;;;19.15;39.70
57990;BME280;58373;51.824;5.564;2023-06-14T00:22:55;101379.72;;;19.15;39.68
57990;BME280;58373;51.824;5.564;2023-06-14T00:25:23;101383.34;;;19.14;39.70
57990;BME280;58373;51.824;5.564;2023-06-14T00:27:50;101379.06;;;19.13;39.69
57990;BME280;58373;51.824;5.564;2023-06-14T00:30:15;101374.81;;;19.12;39.68
57990;BME280;58373;51.824;5.564;2023-06-14T00:32:40;101381.22;;;19.09;39.64
57990;BME280;58373;51.824;5.564;2023-06-14T00:35:07;101375.13;;;19.08;39.75
57990;BME280;58373;51.824;5.564;2023-06-14T00:37:33;101376.47;;;19.04;39.94
57990;BME280;58373;51.824;5.564;2023-06-14T00:39:58;101379.09;;;19.04;39.83
57990;BME280;58373;51.824;5.564;2023-06-14T00:42:26;101376.16;;;18.99;39.98
57990;BME280;58373;51.824;5.564;2023-06-14T00:44:52;101379.78;;;18.98;39.92
57990;BME280;58373;51.824;5.564;2023-06-14T00:47:17;101383.38;;;18.97;39.76
57990;BME280;58373;51.824;5.564;2023-06-14T00:49:45;101381.72;;;18.96;39.92
57990;BME280;58373;51.824;5.564;2023-06-14T00:52:10;101382.22;;;18.92;39.97
57990;BME280;58373;51.824;5.564;2023-06-14T00:54:37;101384.22;;;18.90;39.98
57990;BME280;58373;51.824;5.564;2023-06-14T00:57:03;101382.75;;;18.87;40.09
57990;BME280;58373;51.824;5.564;2023-06-14T00:59:28;101382.41;;;18.82;40.31
57990;BME280;58373;51.824;5.564;2023-06-14T01:01:53;101376.47;;;18.80;40.25
57990;BME280;58373;51.824;5.564;2023-06-14T01:04:19;101376.47;;;18.80;40.38
57990;BME280;58373;51.824;5.564;2023-06-14T01:06:59;101388.97;;;18.78;40.38
57990;BME280;58373;51.824;5.564;2023-06-14T01:09:37;101382.09;;;18.77;40.35
57990;BME280;58373;51.824;5.564;2023-06-14T01:12:24;101384.88;;;18.75;40.35
57990;BME280;58373;51.824;5.564;2023-06-14T01:14:50;101379.13;;;18.72;40.29
57990;BME280;58373;51.824;5.564;2023-06-14T01:17:16;101382.06;;;18.69;40.51
57990;BME280;58373;51.824;5.564;2023-06-14T01:19:43;101383.06;;;18.68;40.29
57990;BME280;58373;51.824;5.564;2023-06-14T01:22:09;101386.31;;;18.62;40.62
57990;BME280;58373;51.824;5.564;2023-06-14T01:24:35;101386.97;;;18.55;40.68
57990;BME280;58373;51.824;5.564;2023-06-14T01:27:00;101388.28;;;18.51;40.83
57990;BME280;58373;51.824;5.564;2023-06-14T01:29:27;101384.50;;;18.46;41.06
57990;BME280;58373;51.824;5.564;2023-06-14T01:31:57;101390.09;;;18.43;41.34
57990;BME280;58373;51.824;5.564;2023-06-14T01:34:22;101389.59;;;18.39;41.31
57990;BME280;58373;51.824;5.564;2023-06-14T01:36:47;101388.59;;;18.32;41.60
57990;BME280;58373;51.824;5.564;2023-06-14T01:39:14;101385.47;;;18.28;41.66
57990;BME280;58373;51.824;5.564;2023-06-14T01:41:40;101382.00;;;18.28;42.08
57990;BME280;58373;51.824;5.564;2023-06-14T01:44:06;101387.59;;;18.25;41.89
57990;BME280;58373;51.824;5.564;2023-06-14T01:46:32;101385.28;;;18.22;41.85
57990;BME280;58373;51.824;5.564;2023-06-14T01:48:57;101384.81;;;18.18;41.83
57990;BME280;58373;51.824;5.564;2023-06-14T01:51:23;101379.69;;;18.17;42.27
57990;BME280;58373;51.824;5.564;2023-06-14T01:53:49;101383.31;;;18.16;41.92
57990;BME280;58373;51.824;5.564;2023-06-14T01:56:14;101380.84;;;18.14;42.04
57990;BME280;58373;51.824;5.564;2023-06-14T01:58:39;101387.22;;;18.12;42.13
57990;BME280;58373;51.824;5.564;2023-06-14T02:01:05;101387.56;;;18.09;42.01
57990;BME280;58373;51.824;5.564;2023-06-14T02:03:30;101390.50;;;18.05;42.46
57990;BME280;58373;51.824;5.564;2023-06-14T02:05:55;101382.13;;;18.02;42.59
57990;BME280;58373;51.824;5.564;2023-06-14T02:08:21;101374.41;;;18.00;42.37
57990;BME280;58373;51.824;5.564;2023-06-14T02:10:46;101372.75;;;17.99;43.10
57990;BME280;58373;51.824;5.564;2023-06-14T02:13:12;101371.47;;;17.95;42.64
57990;BME280;58373;51.824;5.564;2023-06-14T02:15:37;101379.47;;;17.94;43.12
57990;BME280;58373;51.824;5.564;2023-06-14T02:18:02;101380.28;;;17.94;42.76
57990;BME280;58373;51.824;5.564;2023-06-14T02:20:28;101376.50;;;17.89;42.97
57990;BME280;58373;51.824;5.564;2023-06-14T02:22:53;101374.38;;;17.84;43.12
57990;BME280;58373;51.824;5.564;2023-06-14T02:25:18;101376.19;;;17.84;43.86
57990;BME280;58373;51.824;5.564;2023-06-14T02:27:44;101376.66;;;17.79;43.26
57990;BME280;58373;51.824;5.564;2023-06-14T02:30:09;101378.59;;;17.77;43.23
57990;BME280;58373;51.824;5.564;2023-06-14T02:32:35;101384.19;;;17.74;43.07
57990;BME280;58373;51.824;5.564;2023-06-14T02:35:00;101387.78;;;17.73;43.38
57990;BME280;58373;51.824;5.564;2023-06-14T02:37:26;101393.31;;;17.70;44.04
57990;BME280;58373;51.824;5.564;2023-06-14T02:39:51;101384.78;;;17.68;43.43
57990;BME280;58373;51.824;5.564;2023-06-14T02:42:16;101381.47;;;17.66;44.07
57990;BME280;58373;51.824;5.564;2023-06-14T02:44:41;101387.06;;;17.63;44.00
57990;BME280;58373;51.824;5.564;2023-06-14T02:47:08;101382.91;;;17.60;44.03
57990;BME280;58373;51.824;5.564;2023-06-14T02:49:33;101384.38;;;17.55;44.02
57990;BME280;58373;51.824;5.564;2023-06-14T02:51:58;101388.97;;;17.52;44.53
57990;BME280;58373;51.824;5.564;2023-06-14T02:54:23;101391.59;;;17.52;44.59
57990;BME280;58373;51.824;5.564;2023-06-14T02:56:48;101390.25;;;17.48;44.60
57990;BME280;58373;51.824;5.564;2023-06-14T02:59:15;101390.56;;;17.45;44.13
57990;BME280;58373;51.824;5.564;2023-06-14T03:01:40;101398.59;;;17.44;44.31
57990;BME280;58373;51.824;5.564;2023-06-14T03:04:09;101397.78;;;17.43;44.64
57990;BME280;58373;51.824;5.564;2023-06-14T03:06:34;101398.09;;;17.40;44.97
57990;BME280;58373;51.824;5.564;2023-06-14T03:08:59;101403.34;;;17.40;44.69
57990;BME280;58373;51.824;5.564;2023-06-14T03:11:26;101405.28;;;17.38;44.75
57990;BME280;58373;51.824;5.564;2023-06-14T03:13:51;101406.56;;;17.34;45.11
57990;BME280;58373;51.824;5.564;2023-06-14T03:16:17;101404.25;;;17.31;45.15
57990;BME280;58373;51.824;5.564;2023-06-14T03:18:45;101405.22;;;17.30;44.83
57990;BME280;58373;51.824;5.564;2023-06-14T03:21:10;101409.81;;;17.28;44.72
57990;BME280;58373;51.824;5.564;2023-06-14T03:23:35;101412.06;;;17.23;44.95
57990;BME280;58373;51.824;5.564;2023-06-14T03:26:01;101413.34;;;17.19;44.85
57990;BME280;58373;51.824;5.564;2023-06-14T03:28:26;101406.63;;;17.16;45.43
57990;BME280;58373;51.824;5.564;2023-06-14T03:30:51;101413.00;;;17.14;45.52
57990;BME280;58373;51.824;5.564;2023-06-14T03:33:16;101408.72;;;17.13;45.38
57990;BME280;58373;51.824;5.564;2023-06-14T03:35:42;101418.56;;;17.11;45.39
57990;BME280;58373;51.824;5.564;2023-06-14T03:38:08;101413.59;;;17.08;45.75
57990;BME280;58373;51.824;5.564;2023-06-14T03:40:33;101411.97;;;17.07;45.75
57990;BME280;58373;51.824;5.564;2023-06-14T03:42:58;101409.50;;;17.05;46.37
57990;BME280;58373;51.824;5.564;2023-06-14T03:45:23;101416.53;;;17.05;45.69
57990;BME280;58373;51.824;5.564;2023-06-14T03:47:48;101422.75;;;17.04;45.98
57990;BME280;58373;51.824;5.564;2023-06-14T03:50:15;101430.75;;;17.02;46.76
57990;BME280;58373;51.824;5.564;2023-06-14T03:52:40;101434.19;;;17.03;45.75
57990;BME280;58373;51.824;5.564;2023-06-14T03:55:07;101433.69;;;16.99;46.61
57990;BME280;58373;51.824;5.564;2023-06-14T03:57:33;101435.50;;;16.98;46.73
57990;BME280;58373;51.824;5.564;2023-06-14T03:59:58;101434.16;;;16.94;47.59
57990;BME280;58373;51.824;5.564;2023-06-14T04:02:23;101437.06;;;16.91;47.67
57990;BME280;58373;51.824;5.564;2023-06-14T04:04:48;101431.16;;;16.89;47.13
57990;BME280;58373;51.824;5.564;2023-06-14T04:07:14;101436.41;;;16.89;47.80
57990;BME280;58373;51.824;5.564;2023-06-14T04:09:40;101435.72;;;16.87;46.93
57990;BME280;58373;51.824;5.564;2023-06-14T04:12:06;101433.78;;;16.89;47.49
57990;BME280;58373;51.824;5.564;2023-06-14T04:14:32;101432.78;;;16.90;46.72
57990;BME280;58373;51.824;5.564;2023-06-14T04:16:58;101440.00;;;16.88;46.97
57990;BME280;58373;51.824;5.564;2023-06-14T04:19:23;101443.72;;;16.86;47.49
57990;BME280;58373;51.824;5.564;2023-06-14T04:21:48;101438.66;;;16.84;47.52
57990;BME280;58373;51.824;5.564;2023-06-14T04:24:13;101450.75;;;16.85;47.63
57990;BME280;58373;51.824;5.564;2023-06-14T04:26:39;101450.47;;;16.88;47.85
57990;BME280;58373;51.824;5.564;2023-06-14T04:29:05;101446.88;;;16.89;47.65
57990;BME280;58373;51.824;5.564;2023-06-14T04:31:31;101455.41;;;16.91;47.78
57990;BME280;58373;51.824;5.564;2023-06-14T04:34:02;101455.13;;;16.94;47.55
57990;BME280;58373;51.824;5.564;2023-06-14T04:36:30;101453.16;;;16.96;48.04
57990;BME280;58373;51.824;5.564;2023-06-14T04:38:59;101450.53;;;16.96;48.42
57990;BME280;58373;51.824;5.564;2023-06-14T04:41:25;101451.50;;;16.95;48.12
57990;BME280;58373;51.824;5.564;2023-06-14T04:43:56;101449.59;;;16.97;48.30
57990;BME280;58373;51.824;5.564;2023-06-14T04:46:22;101458.41;;;16.96;47.95
57990;BME280;58373;51.824;5.564;2023-06-14T04:48:47;101458.41;;;16.96;48.28
57990;BME280;58373;51.824;5.564;2023-06-14T04:51:12;101458.94;;;17.00;48.90
57990;BME280;58373;51.824;5.564;2023-06-14T04:53:38;101470.22;;;17.01;47.96
57990;BME280;58373;51.824;5.564;2023-06-14T04:56:03;101468.75;;;16.98;48.71
57990;BME280;58373;51.824;5.564;2023-06-14T04:58:29;101464.47;;;16.97;48.60
57990;BME280;58373;51.824;5.564;2023-06-14T05:00:54;101461.38;;;17.02;48.04
57990;BME280;58373;51.824;5.564;2023-06-14T05:03:21;101466.63;;;17.02;48.38
57990;BME280;58373;51.824;5.564;2023-06-14T05:05:46;101473.22;;;17.06;48.73
57990;BME280;58373;51.824;5.564;2023-06-14T05:08:12;101466.34;;;17.05;49.37
57990;BME280;58373;51.824;5.564;2023-06-14T05:10:38;101470.59;;;17.06;48.93
57990;BME280;58373;51.824;5.564;2023-06-14T05:13:03;101476.50;;;17.08;48.58
57990;BME280;58373;51.824;5.564;2023-06-14T05:15:29;101476.22;;;17.11;48.45
57990;BME280;58373;51.824;5.564;2023-06-14T05:17:54;101483.09;;;17.12;48.52
57990;BME280;58373;51.824;5.564;2023-06-14T05:20:21;101477.84;;;17.12;48.91
57990;BME280;58373;51.824;5.564;2023-06-14T05:22:48;101484.25;;;17.09;49.00
57990;BME280;58373;51.824;5.564;2023-06-14T05:25:15;101486.69;;;17.11;48.62
57990;BME280;58373;51.824;5.564;2023-06-14T05:27:40;101481.13;;;17.14;49.02
57990;BME280;58373;51.824;5.564;2023-06-14T05:30:06;101472.00;;;17.18;48.73
57990;BME280;58373;51.824;5.564;2023-06-14T05:32:32;101484.81;;;17.21;49.27
57990;BME280;58373;51.824;5.564;2023-06-14T05:34:57;101484.50;;;17.24;49.19
57990;BME280;58373;51.824;5.564;2023-06-14T05:37:22;101485.16;;;17.26;49.29
57990;BME280;58373;51.824;5.564;2023-06-14T05:39:47;101490.28;;;17.28;48.77
57990;BME280;58373;51.824;5.564;2023-06-14T05:42:13;101490.63;;;17.33;48.85
57990;BME280;58373;51.824;5.564;2023-06-14T05:44:38;101497.19;;;17.37;48.80
57990;BME280;58373;51.824;5.564;2023-06-14T05:47:03;101494.13;;;17.41;48.76
57990;BME280;58373;51.824;5.564;2023-06-14T05:49:28;101498.75;;;17.47;49.22
57990;BME280;58373;51.824;5.564;2023-06-14T05:51:54;101507.66;;;17.55;48.88
57990;BME280;58373;51.824;5.564;2023-06-14T05:54:19;101506.75;;;17.64;48.22
57990;BME280;58373;51.824;5.564;2023-06-14T05:56:44;101507.09;;;17.69;48.27
57990;BME280;58373;51.824;5.564;2023-06-14T05:59:09;101510.13;;;17.74;48.13
57990;BME280;58373;51.824;5.564;2023-06-14T06:01:34;101508.84;;;17.78;48.16
57990;BME280;58373;51.824;5.564;2023-06-14T06:04:01;101509.16;;;17.83;47.89
57990;BME280;58373;51.824;5.564;2023-06-14T06:06:27;101520.72;;;17.90;48.21
57990;BME280;58373;51.824;5.564;2023-06-14T06:08:52;101514.97;;;17.95;47.79
57990;BME280;58373;51.824;5.564;2023-06-14T06:11:17;101513.84;;;17.97;47.91
57990;BME280;58373;51.824;5.564;2023-06-14T06:13:42;101517.81;;;18.01;48.20
57990;BME280;58373;51.824;5.564;2023-06-14T06:16:07;101515.22;;;18.10;48.47
57990;BME280;58373;51.824;5.564;2023-06-14T06:18:33;101528.38;;;18.18;48.14
57990;BME280;58373;51.824;5.564;2023-06-14T06:20:58;101518.06;;;18.24;47.82
57990;BME280;58373;51.824;5.564;2023-06-14T06:23:23;101518.56;;;18.28;48.34
57990;BME280;58373;51.824;5.564;2023-06-14T06:25:49;101523.53;;;18.39;47.86
57990;BME280;58373;51.824;5.564;2023-06-14T06:28:14;101522.53;;;18.40;47.98
57990;BME280;58373;51.824;5.564;2023-06-14T06:30:39;101524.69;;;18.45;47.74
57990;BME280;58373;51.824;5.564;2023-06-14T06:33:04;101533.44;;;18.53;47.44
57990;BME280;58373;51.824;5.564;2023-06-14T06:35:30;101530.16;;;18.60;47.35
57990;BME280;58373;51.824;5.564;2023-06-14T06:37:57;101532.47;;;18.63;47.35
57990;BME280;58373;51.824;5.564;2023-06-14T06:40:23;101534.16;;;18.72;47.23
57990;BME280;58373;51.824;5.564;2023-06-14T06:42:48;101530.59;;;18.81;47.31
57990;BME280;58373;51.824;5.564;2023-06-14T06:45:15;101545.06;;;18.93;47.11
57990;BME280;58373;51.824;5.564;2023-06-14T06:47:40;101548.84;;;18.99;47.11
57990;BME280;58373;51.824;5.564;2023-06-14T06:50:05;101544.75;;;19.04;46.76
57990;BME280;58373;51.824;5.564;2023-06-14T06:52:32;101551.00;;;19.12;46.31
57990;BME280;58373;51.824;5.564;2023-06-14T06:54:57;101549.34;;;19.19;46.43
57990;BME280;58373;51.824;5.564;2023-06-14T06:57:22;101557.09;;;19.28;46.45
57990;BME280;58373;51.824;5.564;2023-06-14T06:59:48;101550.97;;;19.36;46.14
57990;BME280;58373;51.824;5.564;2023-06-14T07:02:13;101557.22;;;19.43;45.94
57990;BME280;58373;51.824;5.564;2023-06-14T07:04:38;101556.25;;;19.52;45.79
57990;BME280;58373;51.824;5.564;2023-06-14T07:07:04;101573.03;;;19.59;45.68
57990;BME280;58373;51.824;5.564;2023-06-14T07:09:29;101568.44;;;19.70;45.40
57990;BME280;58373;51.824;5.564;2023-06-14T07:11:54;101569.75;;;19.74;44.17
57990;BME280;58373;51.824;5.564;2023-06-14T07:14:20;101569.41;;;19.77;43.82
57990;BME280;58373;51.824;5.564;2023-06-14T07:16:47;101564.78;;;19.87;44.37
57990;BME280;58373;51.824;5.564;2023-06-14T07:19:14;101567.38;;;19.95;44.22
57990;BME280;58373;51.824;5.564;2023-06-14T07:21:39;101566.06;;;20.07;43.95
57990;BME280;58373;51.824;5.564;2023-06-14T07:24:05;101571.91;;;20.17;43.86
57990;BME280;58373;51.824;5.564;2023-06-14T07:26:31;101573.19;;;20.30;43.54
57990;BME280;58373;51.824;5.564;2023-06-14T07:28:56;101568.41;;;20.41;43.42
57990;BME280;58373;51.824;5.564;2023-06-14T07:31:21;101575.47;;;20.49;43.38
57990;BME280;58373;51.824;5.564;2023-06-14T07:33:47;101583.00;;;20.60;42.63
57990;BME280;58373;51.824;5.564;2023-06-14T07:36:12;101587.91;;;20.63;43.05
57990;BME280;58373;51.824;5.564;2023-06-14T07:38:37;101588.88;;;20.71;42.62
57990;BME280;58373;51.824;5.564;2023-06-14T07:41:02;101589.44;;;20.81;42.65
57990;BME280;58373;51.824;5.564;2023-06-14T07:43:28;101578.69;;;20.90;42.74
57990;BME280;58373;51.824;5.564;2023-06-14T07:45:53;101583.75;;;21.00;42.62
57990;BME280;58373;51.824;5.564;2023-06-14T07:48:19;101589.97;;;21.07;42.73
57990;BME280;58373;51.824;5.564;2023-06-14T07:50:44;101590.56;;;21.17;42.55
57990;BME280;58373;51.824;5.564;2023-06-14T07:53:09;101595.13;;;21.24;42.17
57990;BME280;58373;51.824;5.564;2023-06-14T07:55:35;101594.44;;;21.30;41.70
57990;BME280;58373;51.824;5.564;2023-06-14T07:58:02;101598.19;;;21.35;42.22
57990;BME280;58373;51.824;5.564;2023-06-14T08:00:27;101605.22;;;21.43;41.77
57990;BME280;58373;51.824;5.564;2023-06-14T08:02:53;101602.78;;;21.56;41.09
57990;BME280;58373;51.824;5.564;2023-06-14T08:05:23;101611.38;;;21.73;40.25
57990;BME280;58373;51.824;5.564;2023-06-14T08:07:48;101602.38;;;21.67;39.71
57990;BME280;58373;51.824;5.564;2023-06-14T08:10:13;101610.84;;;21.63;39.46
57990;BME280;58373;51.824;5.564;2023-06-14T08:12:39;101605.66;;;21.69;39.42
57990;BME280;58373;51.824;5.564;2023-06-14T08:15:04;101605.28;;;21.72;39.60
57990;BME280;58373;51.824;5.564;2023-06-14T08:17:29;101603.84;;;21.85;40.13
57990;BME280;58373;51.824;5.564;2023-06-14T08:19:55;101597.50;;;21.94;39.13
57990;BME280;58373;51.824;5.564;2023-06-14T08:22:22;101604.16;;;22.05;38.08
57990;BME280;58373;51.824;5.564;2023-06-14T08:24:49;101603.97;;;22.06;37.52
57990;BME280;58373;51.824;5.564;2023-06-14T08:27:14;101597.88;;;22.06;38.31
57990;BME280;58373;51.824;5.564;2023-06-14T08:29:40;101598.16;;;22.11;37.46
57990;BME280;58373;51.824;5.564;2023-06-14T08:32:06;101610.09;;;22.21;38.04
57990;BME280;58373;51.824;5.564;2023-06-14T08:34:31;101607.75;;;22.26;36.82
57990;BME280;58373;51.824;5.564;2023-06-14T08:36:57;101602.06;;;22.30;37.66
57990;BME280;58373;51.824;5.564;2023-06-14T08:39:22;101607.91;;;22.40;35.70
57990;BME280;58373;51.824;5.564;2023-06-14T08:41:48;101612.91;;;22.49;35.94
57990;BME280;58373;51.824;5.564;2023-06-14T08:44:14;101614.56;;;22.50;34.68
57990;BME280;58373;51.824;5.564;2023-06-14T08:46:40;101607.25;;;22.52;34.84
57990;BME280;58373;51.824;5.564;2023-06-14T08:49:06;101606.34;;;22.60;35.69
57990;BME280;58373;51.824;5.564;2023-06-14T08:51:33;101603.84;;;22.73;35.50
57990;BME280;58373;51.824;5.564;2023-06-14T08:54:01;101606.00;;;22.85;35.20
57990;BME280;58373;51.824;5.564;2023-06-14T08:56:29;101604.66;;;22.89;35.24
57990;BME280;58373;51.824;5.564;2023-06-14T08:58:55;101609.81;;;22.97;34.98
57990;BME280;58373;51.824;5.564;2023-06-14T09:01:21;101614.50;;;22.95;35.07
57990;BME280;58373;51.824;5.564;2023-06-14T09:03:49;101605.63;;;23.02;34.85
57990;BME280;58373;51.824;5.564;2023-06-14T09:06:14;101602.16;;;23.02;35.06
57990;BME280;58373;51.824;5.564;2023-06-14T09:08:43;101610.97;;;23.09;34.71
57990;BME280;58373;51.824;5.564;2023-06-14T09:11:12;101612.59;;;23.31;33.96
57990;BME280;58373;51.824;5.564;2023-06-14T09:13:39;101616.16;;;23.17;34.55
57990;BME280;58373;51.824;5.564;2023-06-14T09:16:04;101613.56;;;23.24;33.45
57990;BME280;58373;51.824;5.564;2023-06-14T09:18:37;101615.25;;;23.31;33.73
57990;BME280;58373;51.824;5.564;2023-06-14T09:21:03;101624.47;;;23.36;33.65
57990;BME280;58373;51.824;5.564;2023-06-14T09:23:28;101622.06;;;23.41;33.72
57990;BME280;58373;51.824;5.564;2023-06-14T09:25:53;101623.31;;;23.45;32.83
57990;BME280;58373;51.824;5.564;2023-06-14T09:28:19;101625.91;;;23.38;32.75
57990;BME280;58373;51.824;5.564;2023-06-14T09:30:47;101624.47;;;23.36;31.54
57990;BME280;58373;51.824;5.564;2023-06-14T09:33:16;101624.97;;;23.46;32.57
57990;BME280;58373;51.824;5.564;2023-06-14T09:35:41;101617.59;;;23.41;32.38
57990;BME280;58373;51.824;5.564;2023-06-14T09:38:06;101620.84;;;23.43;32.35
57990;BME280;58373;51.824;5.564;2023-06-14T09:40:35;101620.03;;;23.43;32.44
57990;BME280;58373;51.824;5.564;2023-06-14T09:43:02;101619.78;;;23.59;32.28
57990;BME280;58373;51.824;5.564;2023-06-14T09:45:29;101623.19;;;23.53;32.32
57990;BME280;58373;51.824;5.564;2023-06-14T09:47:56;101616.09;;;23.60;33.20
57990;BME280;58373;51.824;5.564;2023-06-14T09:50:22;101621.94;;;23.70;31.67
57990;BME280;58373;51.824;5.564;2023-06-14T09:52:48;101611.34;;;23.70;32.03
57990;BME280;58373;51.824;5.564;2023-06-14T09:55:16;101617.91;;;23.74;32.01
57990;BME280;58373;51.824;5.564;2023-06-14T09:57:43;101614.34;;;23.95;30.50
57990;BME280;58373;51.824;5.564;2023-06-14T10:00:10;101613.50;;;23.88;31.46
57990;BME280;58373;51.824;5.564;2023-06-14T10:02:38;101611.47;;;23.90;31.75
57990;BME280;58373;51.824;5.564;2023-06-14T10:05:05;101614.56;;;23.94;32.30
57990;BME280;58373;51.824;5.564;2023-06-14T10:07:40;101619.72;;;24.08;32.67
57990;BME280;58373;51.824;5.564;2023-06-14T10:10:06;101610.03;;;24.22;31.80
57990;BME280;58373;51.824;5.564;2023-06-14T10:12:32;101616.19;;;24.29;32.22
57990;BME280;58373;51.824;5.564;2023-06-14T10:14:57;101619.13;;;24.41;32.12
57990;BME280;58373;51.824;5.564;2023-06-14T10:19:54;101628.16;;;24.60;30.97
57990;BME280;58373;51.824;5.564;2023-06-14T10:22:34;101620.41;;;24.52;30.86
57990;BME280;58373;51.824;5.564;2023-06-14T10:25:01;101626.50;;;24.46;30.23
57990;BME280;58373;51.824;5.564;2023-06-14T10:27:26;101621.56;;;24.43;30.00
57990;BME280;58373;51.824;5.564;2023-06-14T10:32:17;101613.44;;;24.44;30.60
57990;BME280;58373;51.824;5.564;2023-06-14T10:34:43;101615.88;;;24.46;31.47
57990;BME280;58373;51.824;5.564;2023-06-14T10:37:13;101618.41;;;24.60;32.12
57990;BME280;58373;51.824;5.564;2023-06-14T10:39:39;101605.38;;;24.72;32.48
57990;BME280;58373;51.824;5.564;2023-06-14T10:42:06;101603.78;;;24.84;31.62
57990;BME280;58373;51.824;5.564;2023-06-14T10:44:32;101608.66;;;24.87;31.90
57990;BME280;58373;51.824;5.564;2023-06-14T10:46:58;101613.59;;;24.90;32.15
57990;BME280;58373;51.824;5.564;2023-06-14T10:49:36;101621.34;;;24.99;31.91
57990;BME280;58373;51.824;5.564;2023-06-14T10:52:07;101618.56;;;25.07;31.55
57990;BME280;58373;51.824;5.564;2023-06-14T10:54:34;101607.94;;;25.20;31.34
57990;BME280;58373;51.824;5.564;2023-06-14T10:56:59;101596.94;;;25.30;31.34
57990;BME280;58373;51.824;5.564;2023-06-14T10:59:24;101608.75;;;25.34;31.45
57990;BME280;58373;51.824;5.564;2023-06-14T11:01:57;101614.28;;;25.46;31.57
57990;BME280;58373;51.824;5.564;2023-06-14T11:04:23;101603.47;;;25.54;31.63
57990;BME280;58373;51.824;5.564;2023-06-14T11:06:59;101612.84;;;25.56;30.76
57990;BME280;58373;51.824;5.564;2023-06-14T11:09:50;101607.34;;;25.31;30.23
57990;BME280;58373;51.824;5.564;2023-06-14T11:12:19;101607.94;;;25.20;30.52
57990;BME280;58373;51.824;5.564;2023-06-14T11:14:46;101613.66;;;25.17;30.71
57990;BME280;58373;51.824;5.564;2023-06-14T11:17:12;101622.63;;;25.16;30.69
57990;BME280;58373;51.824;5.564;2023-06-14T11:19:37;101614.06;;;25.14;31.40
57990;BME280;58373;51.824;5.564;2023-06-14T11:22:03;101617.53;;;25.21;30.40
57990;BME280;58373;51.824;5.564;2023-06-14T11:24:28;101619.81;;;25.18;30.71
57990;BME280;58373;51.824;5.564;2023-06-14T11:26:54;101610.38;;;25.15;30.64
57990;BME280;58373;51.824;5.564;2023-06-14T11:29:21;101609.19;;;25.24;30.85
57990;BME280;58373;51.824;5.564;2023-06-14T11:31:46;101607.13;;;25.26;31.30
57990;BME280;58373;51.824;5.564;2023-06-14T11:34:12;101606.31;;;25.32;31.02
57990;BME280;58373;51.824;5.564;2023-06-14T11:36:38;101606.13;;;25.40;31.26
57990;BME280;58373;51.824;5.564;2023-06-14T11:39:03;101596.50;;;25.39;31.07
57990;BME280;58373;51.824;5.564;2023-06-14T11:41:38;101605.13;;;25.41;30.80
57990;BME280;58373;51.824;5.564;2023-06-14T11:44:04;101604.28;;;25.48;30.49
57990;BME280;58373;51.824;5.564;2023-06-14T11:46:29;101594.88;;;25.38;30.36
57990;BME280;58373;51.824;5.564;2023-06-14T11:48:55;101602.63;;;25.33;29.29
57990;BME280;58373;51.824;5.564;2023-06-14T11:51:20;101594.06;;;25.31;30.64
57990;BME280;58373;51.824;5.564;2023-06-14T11:53:45;101604.28;;;25.28;30.66
57990;BME280;58373;51.824;5.564;2023-06-14T11:56:11;101597.75;;;25.30;30.95
57990;BME280;58373;51.824;5.564;2023-06-14T11:58:36;101604.69;;;25.31;30.31
57990;BME280;58373;51.824;5.564;2023-06-14T12:01:03;101598.97;;;25.34;30.49
57990;BME280;58373;51.824;5.564;2023-06-14T12:03:28;101601.22;;;25.31;30.43
57990;BME280;58373;51.824;5.564;2023-06-14T12:06:09;101605.28;;;25.33;30.08
57990;BME280;58373;51.824;5.564;2023-06-14T12:08:35;101597.53;;;25.32;30.19
57990;BME280;58373;51.824;5.564;2023-06-14T12:11:15;101606.75;;;25.36;30.31
57990;BME280;58373;51.824;5.564;2023-06-14T12:13:42;101602.25;;;25.36;30.25
57990;BME280;58373;51.824;5.564;2023-06-14T12:16:10;101598.16;;;25.40;30.26
57990;BME280;58373;51.824;5.564;2023-06-14T12:18:36;101610.41;;;25.41;29.34
57990;BME280;58373;51.824;5.564;2023-06-14T12:21:08;101622.25;;;25.39;28.77
57990;BME280;58373;51.824;5.564;2023-06-14T12:23:41;101607.13;;;25.26;29.16
57990;BME280;58373;51.824;5.564;2023-06-14T12:26:07;101612.44;;;25.26;29.14
57990;BME280;58373;51.824;5.564;2023-06-14T12:28:32;101615.72;;;25.28;29.48
57990;BME280;58373;51.824;5.564;2023-06-14T12:30:58;101601.00;;;25.32;29.59
57990;BME280;58373;51.824;5.564;2023-06-14T12:33:24;101601.00;;;25.32;28.71
57990;BME280;58373;51.824;5.564;2023-06-14T12:35:49;101605.91;;;25.29;30.29
57990;BME280;58373;51.824;5.564;2023-06-14T12:38:15;101608.78;;;25.47;29.80
57990;BME280;58373;51.824;5.564;2023-06-14T12:40:41;101606.94;;;25.48;29.04
57990;BME280;58373;51.824;5.564;2023-06-14T12:43:07;101607.34;;;25.45;29.47
57990;BME280;58373;51.824;5.564;2023-06-14T12:45:32;101611.03;;;25.43;29.61
57990;BME280;58373;51.824;5.564;2023-06-14T12:47:57;101611.84;;;25.51;29.84
57990;BME280;58373;51.824;5.564;2023-06-14T12:50:23;101610.41;;;25.55;30.05